sensor_id;sensor_type;location;lat;lon;timestamp;P1;durP1;ratioP1;P2;durP2;ratioP2
577;SDS011;275;48.492;9.214;2023-05-13T00:00:28;6.67;;;5.70;;
577;SDS011;275;48.492;9.214;2023-05-13T00:02:55;6.22;;;5.40;;
577;SDS011;275;48.492;9.214;2023-05-13T00:05:22;6.78;;;5.95;;
577;SDS011;275;48.492;9.214;2023-05-13T00:07:49;7.10;;;6.50;;
577;SDS011;275;48.492;9.214;2023-05-13T00:10:17;5.93;;;5.43;;
577;SDS011;275;48.492;9.214;2023-05-13T00:12:44;6.72;;;6.07;;
577;SDS011;275;48.492;9.214;2023-05-13T00:15:11;7.33;;;5.70;;
577;SDS011;275;48.492;9.214;2023-05-13T00:17:38;6.20;;;5.70;;
577;SDS011;275;48.492;9.214;2023-05-13T00:20:05;5.93;;;5.43;;
577;SDS011;275;48.492;9.214;2023-05-13T00:22:33;7.30;;;6.70;;
577;SDS011;275;48.492;9.214;2023-05-13T00:25:00;6.60;;;6.00;;
577;SDS011;275;48.492;9.214;2023-05-13T00:27:29;7.28;;;6.63;;
577;SDS011;275;48.492;9.214;2023-05-13T00:29:57;7.00;;;6.30;;
577;SDS011;275;48.492;9.214;2023-05-13T00:32:25;7.27;;;6.67;;
577;SDS011;275;48.492;9.214;2023-05-13T00:34:52;7.25;;;6.70;;
577;SDS011;275;48.492;9.214;2023-05-13T00:37:19;8.30;;;7.60;;
577;SDS011;275;48.492;9.214;2023-05-13T00:39:46;7.10;;;6.50;;
577;SDS011;275;48.492;9.214;2023-05-13T00:42:13;7.43;;;6.57;;
577;SDS011;275;48.492;9.214;2023-05-13T00:44:42;7.70;;;7.00;;
577;SDS011;275;48.492;9.214;2023-05-13T00:47:09;6.50;;;5.95;;
577;SDS011;275;48.492;9.214;2023-05-13T00:49:36;7.95;;;7.32;;
577;SDS011;275;48.492;9.214;2023-05-13T00:52:04;7.63;;;6.97;;
577;SDS011;275;48.492;9.214;2023-05-13T00:54:31;7.80;;;7.20;;
577;SDS011;275;48.492;9.214;2023-05-13T00:57:00;8.15;;;7.45;;
577;SDS011;275;48.492;9.214;2023-05-13T00:59:29;8.00;;;7.03;;
577;SDS011;275;48.492;9.214;2023-05-13T01:01:59;8.63;;;7.88;;
577;SDS011;275;48.492;9.214;2023-05-13T01:04:34;8.63;;;7.90;;
577;SDS011;275;48.492;9.214;2023-05-13T01:07:07;9.10;;;8.30;;
577;SDS011;275;48.492;9.214;2023-05-13T01:09:42;8.18;;;7.35;;
577;SDS011;275;48.492;9.214;2023-05-13T01:12:20;9.10;;;8.38;;
577;SDS011;275;48.492;9.214;2023-05-13T01:14:53;7.93;;;7.33;;
577;SDS011;275;48.492;9.214;2023-05-13T01:17:31;8.18;;;7.47;;
577;SDS011;275;48.492;9.214;2023-05-13T01:20:03;7.80;;;7.10;;
577;SDS011;275;48.492;9.214;2023-05-13T01:22:32;8.52;;;7.93;;
577;SDS011;275;48.492;9.214;2023-05-13T01:24:59;7.70;;;7.00;;
577;SDS011;275;48.492;9.214;2023-05-13T01:27:26;8.52;;;7.82;;
577;SDS011;275;48.492;9.214;2023-05-13T01:29:53;8.50;;;7.70;;
577;SDS011;275;48.492;9.214;2023-05-13T01:32:21;8.73;;;8.02;;
577;SDS011;275;48.492;9.214;2023-05-13T01:34:49;7.15;;;6.65;;
577;SDS011;275;48.492;9.214;2023-05-13T01:37:17;7.88;;;7.18;;
577;SDS011;275;48.492;9.214;2023-05-13T01:39:49;7.57;;;6.88;;
577;SDS011;275;48.492;9.214;2023-05-13T01:42:28;7.20;;;6.60;;
577;SDS011;275;48.492;9.214;2023-05-13T01:44:57;8.25;;;7.55;;
577;SDS011;275;48.492;9.214;2023-05-13T01:47:24;9.43;;;8.63;;
577;SDS011;275;48.492;9.214;2023-05-13T01:49:51;8.17;;;7.50;;
577;SDS011;275;48.492;9.214;2023-05-13T01:52:18;8.63;;;7.93;;
577;SDS011;275;48.492;9.214;2023-05-13T01:54:44;8.05;;;7.43;;
577;SDS011;275;48.492;9.214;2023-05-13T01:57:13;8.43;;;7.63;;
577;SDS011;275;48.492;9.214;2023-05-13T01:59:39;9.05;;;7.85;;
577;SDS011;275;48.492;9.214;2023-05-13T02:02:06;8.23;;;7.57;;
577;SDS011;275;48.492;9.214;2023-05-13T02:04:33;7.57;;;6.93;;
577;SDS011;275;48.492;9.214;2023-05-13T02:07:00;8.30;;;7.63;;
577;SDS011;275;48.492;9.214;2023-05-13T02:09:27;8.10;;;7.45;;
577;SDS011;275;48.492;9.214;2023-05-13T02:11:54;8.45;;;7.75;;
577;SDS011;275;48.492;9.214;2023-05-13T02:14:22;9.80;;;8.82;;
577;SDS011;275;48.492;9.214;2023-05-13T02:16:50;8.35;;;7.68;;
577;SDS011;275;48.492;9.214;2023-05-13T02:19:16;8.32;;;7.72;;
577;SDS011;275;48.492;9.214;2023-05-13T02:21:46;7.65;;;7.05;;
577;SDS011;275;48.492;9.214;2023-05-13T02:24:13;8.40;;;7.70;;
577;SDS011;275;48.492;9.214;2023-05-13T02:26:40;8.75;;;8.05;;
577;SDS011;275;48.492;9.214;2023-05-13T02:29:06;8.82;;;8.13;;
577;SDS011;275;48.492;9.214;2023-05-13T02:31:35;8.77;;;7.97;;
577;SDS011;275;48.492;9.214;2023-05-13T02:34:02;9.80;;;8.80;;
577;SDS011;275;48.492;9.214;2023-05-13T02:36:29;8.20;;;7.50;;
577;SDS011;275;48.492;9.214;2023-05-13T02:38:55;8.85;;;7.32;;
577;SDS011;275;48.492;9.214;2023-05-13T02:41:22;9.50;;;8.80;;
577;SDS011;275;48.492;9.214;2023-05-13T02:43:49;9.25;;;7.95;;
577;SDS011;275;48.492;9.214;2023-05-13T02:46:16;7.90;;;7.30;;
577;SDS011;275;48.492;9.214;2023-05-13T02:48:44;8.80;;;8.10;;
577;SDS011;275;48.492;9.214;2023-05-13T02:51:11;8.15;;;7.45;;
577;SDS011;275;48.492;9.214;2023-05-13T02:53:38;9.05;;;8.35;;
577;SDS011;275;48.492;9.214;2023-05-13T02:56:05;8.27;;;7.45;;
577;SDS011;275;48.492;9.214;2023-05-13T02:58:33;8.80;;;8.10;;
577;SDS011;275;48.492;9.214;2023-05-13T03:01:00;8.32;;;7.47;;
577;SDS011;275;48.492;9.214;2023-05-13T03:03:27;8.88;;;8.15;;
577;SDS011;275;48.492;9.214;2023-05-13T03:05:55;8.57;;;7.78;;
577;SDS011;275;48.492;9.214;2023-05-13T03:08:22;7.57;;;6.82;;
577;SDS011;275;48.492;9.214;2023-05-13T03:10:50;8.70;;;8.00;;
577;SDS011;275;48.492;9.214;2023-05-13T03:13:16;8.48;;;7.78;;
577;SDS011;275;48.492;9.214;2023-05-13T03:15:43;7.72;;;7.13;;
577;SDS011;275;48.492;9.214;2023-05-13T03:18:10;7.55;;;6.95;;
577;SDS011;275;48.492;9.214;2023-05-13T03:20:37;7.72;;;7.03;;
577;SDS011;275;48.492;9.214;2023-05-13T03:23:05;8.02;;;7.32;;
577;SDS011;275;48.492;9.214;2023-05-13T03:25:32;7.72;;;7.13;;
577;SDS011;275;48.492;9.214;2023-05-13T03:27:59;8.65;;;7.85;;
577;SDS011;275;48.492;9.214;2023-05-13T03:30:25;9.18;;;8.35;;
577;SDS011;275;48.492;9.214;2023-05-13T03:32:52;8.65;;;7.75;;
577;SDS011;275;48.492;9.214;2023-05-13T03:35:20;9.68;;;8.80;;
577;SDS011;275;48.492;9.214;2023-05-13T03:37:47;8.15;;;7.45;;
577;SDS011;275;48.492;9.214;2023-05-13T03:40:15;8.38;;;7.40;;
577;SDS011;275;48.492;9.214;2023-05-13T03:42:42;7.47;;;6.90;;
577;SDS011;275;48.492;9.214;2023-05-13T03:45:09;8.32;;;7.63;;
577;SDS011;275;48.492;9.214;2023-05-13T03:47:36;8.13;;;7.32;;
577;SDS011;275;48.492;9.214;2023-05-13T03:50:04;8.63;;;6.95;;
577;SDS011;275;48.492;9.214;2023-05-13T03:52:32;7.70;;;7.00;;
577;SDS011;275;48.492;9.214;2023-05-13T03:54:59;7.57;;;6.97;;
577;SDS011;275;48.492;9.214;2023-05-13T03:57:27;7.97;;;7.38;;
577;SDS011;275;48.492;9.214;2023-05-13T03:59:54;7.45;;;6.75;;
577;SDS011;275;48.492;9.214;2023-05-13T04:02:21;7.10;;;6.50;;
577;SDS011;275;48.492;9.214;2023-05-13T04:04:48;7.10;;;6.50;;
577;SDS011;275;48.492;9.214;2023-05-13T04:07:14;7.72;;;6.40;;
577;SDS011;275;48.492;9.214;2023-05-13T04:09:44;7.15;;;6.55;;
577;SDS011;275;48.492;9.214;2023-05-13T04:12:11;7.07;;;6.57;;
577;SDS011;275;48.492;9.214;2023-05-13T04:14:39;8.30;;;7.50;;
577;SDS011;275;48.492;9.214;2023-05-13T04:17:06;7.30;;;5.90;;
577;SDS011;275;48.492;9.214;2023-05-13T04:19:33;6.97;;;6.38;;
577;SDS011;275;48.492;9.214;2023-05-13T04:22:00;6.30;;;5.80;;
577;SDS011;275;48.492;9.214;2023-05-13T04:24:27;8.50;;;6.05;;
577;SDS011;275;48.492;9.214;2023-05-13T04:26:53;7.30;;;6.60;;
577;SDS011;275;48.492;9.214;2023-05-13T04:29:20;6.70;;;6.20;;
577;SDS011;275;48.492;9.214;2023-05-13T04:31:48;7.22;;;6.55;;
577;SDS011;275;48.492;9.214;2023-05-13T04:34:15;12.00;;;6.45;;
577;SDS011;275;48.492;9.214;2023-05-13T04:36:42;6.60;;;6.05;;
577;SDS011;275;48.492;9.214;2023-05-13T04:39:10;6.38;;;5.78;;
577;SDS011;275;48.492;9.214;2023-05-13T04:41:37;7.63;;;6.30;;
577;SDS011;275;48.492;9.214;2023-05-13T04:44:04;7.20;;;6.60;;
577;SDS011;275;48.492;9.214;2023-05-13T04:46:31;6.72;;;5.95;;
577;SDS011;275;48.492;9.214;2023-05-13T04:48:59;6.70;;;6.00;;
577;SDS011;275;48.492;9.214;2023-05-13T04:51:26;7.68;;;6.90;;
577;SDS011;275;48.492;9.214;2023-05-13T04:53:53;6.53;;;5.95;;
577;SDS011;275;48.492;9.214;2023-05-13T04:56:20;7.10;;;5.80;;
577;SDS011;275;48.492;9.214;2023-05-13T04:58:46;5.53;;;5.13;;
577;SDS011;275;48.492;9.214;2023-05-13T05:01:13;7.22;;;5.75;;
577;SDS011;275;48.492;9.214;2023-05-13T05:03:40;6.20;;;5.70;;
577;SDS011;275;48.492;9.214;2023-05-13T05:06:08;6.65;;;6.05;;
577;SDS011;275;48.492;9.214;2023-05-13T05:08:35;7.68;;;5.40;;
577;SDS011;275;48.492;9.214;2023-05-13T05:11:02;5.70;;;5.20;;
577;SDS011;275;48.492;9.214;2023-05-13T05:13:28;5.65;;;5.15;;
577;SDS011;275;48.492;9.214;2023-05-13T05:15:55;6.43;;;5.93;;
577;SDS011;275;48.492;9.214;2023-05-13T05:18:22;6.07;;;5.57;;
577;SDS011;275;48.492;9.214;2023-05-13T05:20:49;6.07;;;5.47;;
577;SDS011;275;48.492;9.214;2023-05-13T05:23:17;5.60;;;5.10;;
577;SDS011;275;48.492;9.214;2023-05-13T05:25:44;5.53;;;5.03;;
577;SDS011;275;48.492;9.214;2023-05-13T05:28:11;5.97;;;5.47;;
577;SDS011;275;48.492;9.214;2023-05-13T05:30:38;5.47;;;5.03;;
577;SDS011;275;48.492;9.214;2023-05-13T05:33:05;5.55;;;5.05;;
577;SDS011;275;48.492;9.214;2023-05-13T05:35:32;5.82;;;5.32;;
577;SDS011;275;48.492;9.214;2023-05-13T05:38:01;5.60;;;5.07;;
577;SDS011;275;48.492;9.214;2023-05-13T05:40:29;6.85;;;6.15;;
577;SDS011;275;48.492;9.214;2023-05-13T05:42:56;5.70;;;5.15;;
577;SDS011;275;48.492;9.214;2023-05-13T05:45:23;5.80;;;5.30;;
577;SDS011;275;48.492;9.214;2023-05-13T05:47:50;6.10;;;5.57;;
577;SDS011;275;48.492;9.214;2023-05-13T05:50:18;5.70;;;5.20;;
577;SDS011;275;48.492;9.214;2023-05-13T05:52:44;5.75;;;5.25;;
577;SDS011;275;48.492;9.214;2023-05-13T05:55:11;5.43;;;4.90;;
577;SDS011;275;48.492;9.214;2023-05-13T05:57:39;5.88;;;5.38;;
577;SDS011;275;48.492;9.214;2023-05-13T06:00:07;6.85;;;6.15;;
577;SDS011;275;48.492;9.214;2023-05-13T06:02:34;5.93;;;5.32;;
577;SDS011;275;48.492;9.214;2023-05-13T06:05:01;5.68;;;5.18;;
577;SDS011;275;48.492;9.214;2023-05-13T06:07:28;6.28;;;5.68;;
577;SDS011;275;48.492;9.214;2023-05-13T06:09:54;5.32;;;4.82;;
577;SDS011;275;48.492;9.214;2023-05-13T06:12:21;6.95;;;5.53;;
577;SDS011;275;48.492;9.214;2023-05-13T06:14:49;6.57;;;5.97;;
577;SDS011;275;48.492;9.214;2023-05-13T06:17:16;5.65;;;5.15;;
577;SDS011;275;48.492;9.214;2023-05-13T06:19:43;6.75;;;6.00;;
577;SDS011;275;48.492;9.214;2023-05-13T06:22:10;5.95;;;5.45;;
577;SDS011;275;48.492;9.214;2023-05-13T06:24:37;6.43;;;5.85;;
577;SDS011;275;48.492;9.214;2023-05-13T06:27:06;5.35;;;4.85;;
577;SDS011;275;48.492;9.214;2023-05-13T06:29:33;5.50;;;5.00;;
577;SDS011;275;48.492;9.214;2023-05-13T06:32:01;5.53;;;5.03;;
577;SDS011;275;48.492;9.214;2023-05-13T06:34:28;6.20;;;5.60;;
577;SDS011;275;48.492;9.214;2023-05-13T06:36:55;7.15;;;5.80;;
577;SDS011;275;48.492;9.214;2023-05-13T06:39:22;8.02;;;5.30;;
577;SDS011;275;48.492;9.214;2023-05-13T06:41:49;5.80;;;5.03;;
577;SDS011;275;48.492;9.214;2023-05-13T06:44:16;5.57;;;5.07;;
577;SDS011;275;48.492;9.214;2023-05-13T06:46:42;7.00;;;5.85;;
577;SDS011;275;48.492;9.214;2023-05-13T06:49:11;6.78;;;5.53;;
577;SDS011;275;48.492;9.214;2023-05-13T06:51:37;5.63;;;5.13;;
577;SDS011;275;48.492;9.214;2023-05-13T06:54:04;5.88;;;5.20;;
577;SDS011;275;48.492;9.214;2023-05-13T06:56:31;6.78;;;5.85;;
577;SDS011;275;48.492;9.214;2023-05-13T06:59:00;6.93;;;6.30;;
577;SDS011;275;48.492;9.214;2023-05-13T07:01:27;6.85;;;6.25;;
577;SDS011;275;48.492;9.214;2023-05-13T07:03:54;6.40;;;5.80;;
577;SDS011;275;48.492;9.214;2023-05-13T07:06:22;6.18;;;5.35;;
577;SDS011;275;48.492;9.214;2023-05-13T07:08:48;5.72;;;5.20;;
577;SDS011;275;48.492;9.214;2023-05-13T07:11:15;6.57;;;5.97;;
577;SDS011;275;48.492;9.214;2023-05-13T07:13:42;5.93;;;5.40;;
577;SDS011;275;48.492;9.214;2023-05-13T07:16:09;6.97;;;6.18;;
577;SDS011;275;48.492;9.214;2023-05-13T07:18:36;6.57;;;6.03;;
577;SDS011;275;48.492;9.214;2023-05-13T07:21:03;6.10;;;5.50;;
577;SDS011;275;48.492;9.214;2023-05-13T07:23:31;6.22;;;5.68;;
577;SDS011;275;48.492;9.214;2023-05-13T07:25:59;5.80;;;5.30;;
577;SDS011;275;48.492;9.214;2023-05-13T07:28:26;6.57;;;5.88;;
577;SDS011;275;48.492;9.214;2023-05-13T07:30:53;7.03;;;5.95;;
577;SDS011;275;48.492;9.214;2023-05-13T07:33:20;6.90;;;5.97;;
577;SDS011;275;48.492;9.214;2023-05-13T07:35:47;5.53;;;5.03;;
577;SDS011;275;48.492;9.214;2023-05-13T07:38:14;7.32;;;6.65;;
577;SDS011;275;48.492;9.214;2023-05-13T07:40:42;6.95;;;6.32;;
577;SDS011;275;48.492;9.214;2023-05-13T07:43:09;6.35;;;5.85;;
577;SDS011;275;48.492;9.214;2023-05-13T07:45:37;6.97;;;6.03;;
577;SDS011;275;48.492;9.214;2023-05-13T07:48:04;6.88;;;6.28;;
577;SDS011;275;48.492;9.214;2023-05-13T07:50:31;7.28;;;6.57;;
577;SDS011;275;48.492;9.214;2023-05-13T07:52:58;7.20;;;6.53;;
577;SDS011;275;48.492;9.214;2023-05-13T07:55:25;6.25;;;5.65;;
577;SDS011;275;48.492;9.214;2023-05-13T07:57:53;9.40;;;6.45;;
577;SDS011;275;48.492;9.214;2023-05-13T08:00:20;6.97;;;6.28;;
577;SDS011;275;48.492;9.214;2023-05-13T08:02:46;6.80;;;6.10;;
577;SDS011;275;48.492;9.214;2023-05-13T08:05:13;6.88;;;6.18;;
577;SDS011;275;48.492;9.214;2023-05-13T08:07:40;6.70;;;6.10;;
577;SDS011;275;48.492;9.214;2023-05-13T08:10:07;6.60;;;6.00;;
577;SDS011;275;48.492;9.214;2023-05-13T08:12:34;7.10;;;6.40;;
577;SDS011;275;48.492;9.214;2023-05-13T08:15:03;7.85;;;6.50;;
577;SDS011;275;48.492;9.214;2023-05-13T08:17:31;7.32;;;6.63;;
577;SDS011;275;48.492;9.214;2023-05-13T08:19:59;7.85;;;7.15;;
577;SDS011;275;48.492;9.214;2023-05-13T08:22:26;7.47;;;6.88;;
577;SDS011;275;48.492;9.214;2023-05-13T08:24:53;7.53;;;6.53;;
577;SDS011;275;48.492;9.214;2023-05-13T08:27:19;7.53;;;6.73;;
577;SDS011;275;48.492;9.214;2023-05-13T08:29:46;7.35;;;6.70;;
577;SDS011;275;48.492;9.214;2023-05-13T08:32:14;7.53;;;6.70;;
577;SDS011;275;48.492;9.214;2023-05-13T08:34:41;7.82;;;6.75;;
577;SDS011;275;48.492;9.214;2023-05-13T08:37:08;6.90;;;6.20;;
577;SDS011;275;48.492;9.214;2023-05-13T08:39:35;7.73;;;7.03;;
577;SDS011;275;48.492;9.214;2023-05-13T08:42:02;8.70;;;7.90;;
577;SDS011;275;48.492;9.214;2023-05-13T08:44:30;7.63;;;6.90;;
577;SDS011;275;48.492;9.214;2023-05-13T08:46:59;9.20;;;7.57;;
577;SDS011;275;48.492;9.214;2023-05-13T08:49:35;8.50;;;7.30;;
577;SDS011;275;48.492;9.214;2023-05-13T08:52:03;8.65;;;7.85;;
577;SDS011;275;48.492;9.214;2023-05-13T08:54:30;8.45;;;7.38;;
577;SDS011;275;48.492;9.214;2023-05-13T08:56:57;8.10;;;7.40;;
577;SDS011;275;48.492;9.214;2023-05-13T08:59:24;8.57;;;7.70;;
577;SDS011;275;48.492;9.214;2023-05-13T09:01:51;8.60;;;7.80;;
577;SDS011;275;48.492;9.214;2023-05-13T09:04:19;8.23;;;7.30;;
577;SDS011;275;48.492;9.214;2023-05-13T09:06:47;8.57;;;7.67;;
577;SDS011;275;48.492;9.214;2023-05-13T09:09:14;8.77;;;7.83;;
577;SDS011;275;48.492;9.214;2023-05-13T09:11:41;8.93;;;8.07;;
577;SDS011;275;48.492;9.214;2023-05-13T09:14:08;8.20;;;7.40;;
577;SDS011;275;48.492;9.214;2023-05-13T09:16:36;9.50;;;8.50;;
577;SDS011;275;48.492;9.214;2023-05-13T09:19:03;8.48;;;7.68;;
577;SDS011;275;48.492;9.214;2023-05-13T09:21:31;7.90;;;7.10;;
577;SDS011;275;48.492;9.214;2023-05-13T09:24:03;7.93;;;7.23;;
577;SDS011;275;48.492;9.214;2023-05-13T09:26:32;8.53;;;7.60;;
577;SDS011;275;48.492;9.214;2023-05-13T09:29:18;8.80;;;8.00;;
577;SDS011;275;48.492;9.214;2023-05-13T09:31:48;9.20;;;8.40;;
577;SDS011;275;48.492;9.214;2023-05-13T09:34:23;9.00;;;8.10;;
577;SDS011;275;48.492;9.214;2023-05-13T09:37:01;10.67;;;7.50;;
577;SDS011;275;48.492;9.214;2023-05-13T09:39:30;8.50;;;7.70;;
577;SDS011;275;48.492;9.214;2023-05-13T09:41:59;7.80;;;6.67;;
577;SDS011;275;48.492;9.214;2023-05-13T09:44:27;8.27;;;7.47;;
577;SDS011;275;48.492;9.214;2023-05-13T09:46:55;9.80;;;8.80;;
577;SDS011;275;48.492;9.214;2023-05-13T09:49:22;9.13;;;8.23;;
577;SDS011;275;48.492;9.214;2023-05-13T09:51:51;7.83;;;7.00;;
577;SDS011;275;48.492;9.214;2023-05-13T09:54:17;9.20;;;8.30;;
577;SDS011;275;48.492;9.214;2023-05-13T09:56:46;8.67;;;7.80;;
577;SDS011;275;48.492;9.214;2023-05-13T09:59:14;8.67;;;7.87;;
577;SDS011;275;48.492;9.214;2023-05-13T10:01:41;8.07;;;7.37;;
577;SDS011;275;48.492;9.214;2023-05-13T10:04:08;9.10;;;8.13;;
577;SDS011;275;48.492;9.214;2023-05-13T10:06:36;8.67;;;7.53;;
577;SDS011;275;48.492;9.214;2023-05-13T10:09:03;10.03;;;7.90;;
577;SDS011;275;48.492;9.214;2023-05-13T10:11:35;8.83;;;7.30;;
577;SDS011;275;48.492;9.214;2023-05-13T10:14:04;8.43;;;7.63;;
577;SDS011;275;48.492;9.214;2023-05-13T10:16:31;8.00;;;7.20;;
577;SDS011;275;48.492;9.214;2023-05-13T10:18:58;7.53;;;6.83;;
577;SDS011;275;48.492;9.214;2023-05-13T10:21:26;7.43;;;6.73;;
577;SDS011;275;48.492;9.214;2023-05-13T10:23:53;7.67;;;6.87;;
577;SDS011;275;48.492;9.214;2023-05-13T10:26:21;8.20;;;7.30;;
577;SDS011;275;48.492;9.214;2023-05-13T10:28:49;6.27;;;5.67;;
577;SDS011;275;48.492;9.214;2023-05-13T10:31:17;9.67;;;6.93;;
577;SDS011;275;48.492;9.214;2023-05-13T10:33:44;7.27;;;6.37;;
577;SDS011;275;48.492;9.214;2023-05-13T10:36:34;7.07;;;6.33;;
577;SDS011;275;48.492;9.214;2023-05-13T10:39:16;7.20;;;6.60;;
577;SDS011;275;48.492;9.214;2023-05-13T10:42:07;6.83;;;6.13;;
577;SDS011;275;48.492;9.214;2023-05-13T10:44:58;6.90;;;6.30;;
577;SDS011;275;48.492;9.214;2023-05-13T10:47:26;6.70;;;6.20;;
577;SDS011;275;48.492;9.214;2023-05-13T10:49:57;6.63;;;6.00;;
577;SDS011;275;48.492;9.214;2023-05-13T10:52:39;5.93;;;5.37;;
577;SDS011;275;48.492;9.214;2023-05-13T10:55:13;6.80;;;5.73;;
577;SDS011;275;48.492;9.214;2023-05-13T10:57:41;5.77;;;5.20;;
577;SDS011;275;48.492;9.214;2023-05-13T11:00:29;6.30;;;5.70;;
577;SDS011;275;48.492;9.214;2023-05-13T11:02:59;7.37;;;5.73;;
577;SDS011;275;48.492;9.214;2023-05-13T11:05:37;6.10;;;5.50;;
577;SDS011;275;48.492;9.214;2023-05-13T11:08:05;6.33;;;5.77;;
577;SDS011;275;48.492;9.214;2023-05-13T11:10:32;7.03;;;6.30;;
577;SDS011;275;48.492;9.214;2023-05-13T11:13:05;6.57;;;6.00;;
577;SDS011;275;48.492;9.214;2023-05-13T11:15:50;6.10;;;5.20;;
577;SDS011;275;48.492;9.214;2023-05-13T11:18:19;7.17;;;6.40;;
577;SDS011;275;48.492;9.214;2023-05-13T11:20:54;6.33;;;5.30;;
577;SDS011;275;48.492;9.214;2023-05-13T11:23:26;6.10;;;5.50;;
577;SDS011;275;48.492;9.214;2023-05-13T11:26:09;7.23;;;6.00;;
577;SDS011;275;48.492;9.214;2023-05-13T11:31:41;5.70;;;5.20;;
577;SDS011;275;48.492;9.214;2023-05-13T11:34:14;5.63;;;5.13;;
577;SDS011;275;48.492;9.214;2023-05-13T11:36:43;6.50;;;5.17;;
577;SDS011;275;48.492;9.214;2023-05-13T11:39:12;7.37;;;6.03;;
577;SDS011;275;48.492;9.214;2023-05-13T11:41:42;5.60;;;5.10;;
577;SDS011;275;48.492;9.214;2023-05-13T11:44:11;6.00;;;5.40;;
577;SDS011;275;48.492;9.214;2023-05-13T11:46:47;5.40;;;4.90;;
577;SDS011;275;48.492;9.214;2023-05-13T11:49:29;4.70;;;4.27;;
577;SDS011;275;48.492;9.214;2023-05-13T11:52:00;5.40;;;4.83;;
577;SDS011;275;48.492;9.214;2023-05-13T11:54:28;7.83;;;6.47;;
577;SDS011;275;48.492;9.214;2023-05-13T11:56:55;5.57;;;5.07;;
577;SDS011;275;48.492;9.214;2023-05-13T11:59:22;5.30;;;4.80;;
577;SDS011;275;48.492;9.214;2023-05-13T12:01:59;4.90;;;4.50;;
577;SDS011;275;48.492;9.214;2023-05-13T12:04:27;5.50;;;5.00;;
577;SDS011;275;48.492;9.214;2023-05-13T12:06:56;5.90;;;5.30;;
577;SDS011;275;48.492;9.214;2023-05-13T12:09:24;5.87;;;4.80;;
577;SDS011;275;48.492;9.214;2023-05-13T12:11:51;5.47;;;4.97;;
577;SDS011;275;48.492;9.214;2023-05-13T12:14:18;4.87;;;4.47;;
577;SDS011;275;48.492;9.214;2023-05-13T12:16:46;4.90;;;4.40;;
577;SDS011;275;48.492;9.214;2023-05-13T12:19:13;5.53;;;5.03;;
577;SDS011;275;48.492;9.214;2023-05-13T12:21:41;5.10;;;4.60;;
577;SDS011;275;48.492;9.214;2023-05-13T12:24:17;5.77;;;5.27;;
577;SDS011;275;48.492;9.214;2023-05-13T12:26:45;7.77;;;5.23;;
577;SDS011;275;48.492;9.214;2023-05-13T12:29:13;5.87;;;5.23;;
577;SDS011;275;48.492;9.214;2023-05-13T12:31:40;5.93;;;5.33;;
577;SDS011;275;48.492;9.214;2023-05-13T12:34:08;6.10;;;5.60;;
577;SDS011;275;48.492;9.214;2023-05-13T12:36:35;5.70;;;5.10;;
577;SDS011;275;48.492;9.214;2023-05-13T12:39:04;5.40;;;4.87;;
577;SDS011;275;48.492;9.214;2023-05-13T12:41:33;5.40;;;4.90;;
577;SDS011;275;48.492;9.214;2023-05-13T12:44:02;5.60;;;5.10;;
577;SDS011;275;48.492;9.214;2023-05-13T12:46:30;6.03;;;5.43;;
577;SDS011;275;48.492;9.214;2023-05-13T12:48:57;8.40;;;5.37;;
577;SDS011;275;48.492;9.214;2023-05-13T12:51:25;5.87;;;5.27;;
577;SDS011;275;48.492;9.214;2023-05-13T12:53:54;5.77;;;5.27;;
577;SDS011;275;48.492;9.214;2023-05-13T12:56:24;6.27;;;5.53;;
577;SDS011;275;48.492;9.214;2023-05-13T12:58:51;6.10;;;5.50;;
577;SDS011;275;48.492;9.214;2023-05-13T13:01:19;5.37;;;4.70;;
577;SDS011;275;48.492;9.214;2023-05-13T13:03:46;5.60;;;5.10;;
577;SDS011;275;48.492;9.214;2023-05-13T13:06:13;5.90;;;5.40;;
577;SDS011;275;48.492;9.214;2023-05-13T13:08:40;5.70;;;5.20;;
577;SDS011;275;48.492;9.214;2023-05-13T13:11:07;5.37;;;4.87;;
577;SDS011;275;48.492;9.214;2023-05-13T13:13:35;6.30;;;5.00;;
577;SDS011;275;48.492;9.214;2023-05-13T13:16:02;5.50;;;5.00;;
577;SDS011;275;48.492;9.214;2023-05-13T13:18:30;5.70;;;5.10;;
577;SDS011;275;48.492;9.214;2023-05-13T13:20:57;6.67;;;6.07;;
577;SDS011;275;48.492;9.214;2023-05-13T13:23:23;8.00;;;5.70;;
577;SDS011;275;48.492;9.214;2023-05-13T13:25:50;5.80;;;5.30;;
577;SDS011;275;48.492;9.214;2023-05-13T13:28:17;7.70;;;5.27;;
577;SDS011;275;48.492;9.214;2023-05-13T13:30:45;6.07;;;5.57;;
577;SDS011;275;48.492;9.214;2023-05-13T13:33:13;5.53;;;5.03;;
577;SDS011;275;48.492;9.214;2023-05-13T13:35:40;6.37;;;5.77;;
577;SDS011;275;48.492;9.214;2023-05-13T13:38:08;5.67;;;5.17;;
577;SDS011;275;48.492;9.214;2023-05-13T13:40:35;6.27;;;5.67;;
577;SDS011;275;48.492;9.214;2023-05-13T13:43:02;6.43;;;5.87;;
577;SDS011;275;48.492;9.214;2023-05-13T13:45:30;6.40;;;5.80;;
577;SDS011;275;48.492;9.214;2023-05-13T13:47:58;6.03;;;5.43;;
577;SDS011;275;48.492;9.214;2023-05-13T13:50:25;5.40;;;4.90;;
577;SDS011;275;48.492;9.214;2023-05-13T13:52:53;5.50;;;5.00;;
577;SDS011;275;48.492;9.214;2023-05-13T13:55:20;6.03;;;5.43;;
577;SDS011;275;48.492;9.214;2023-05-13T13:57:47;6.43;;;5.83;;
577;SDS011;275;48.492;9.214;2023-05-13T14:00:16;5.73;;;5.23;;
577;SDS011;275;48.492;9.214;2023-05-13T14:02:43;6.57;;;5.97;;
577;SDS011;275;48.492;9.214;2023-05-13T14:05:11;8.50;;;6.30;;
577;SDS011;275;48.492;9.214;2023-05-13T14:07:38;5.80;;;5.30;;
577;SDS011;275;48.492;9.214;2023-05-13T14:10:05;6.43;;;5.83;;
577;SDS011;275;48.492;9.214;2023-05-13T14:12:33;6.53;;;5.93;;
577;SDS011;275;48.492;9.214;2023-05-13T14:15:00;6.67;;;5.63;;
577;SDS011;275;48.492;9.214;2023-05-13T14:17:27;6.53;;;6.00;;
577;SDS011;275;48.492;9.214;2023-05-13T14:19:54;6.60;;;5.90;;
577;SDS011;275;48.492;9.214;2023-05-13T14:22:22;6.87;;;5.70;;
577;SDS011;275;48.492;9.214;2023-05-13T14:24:50;6.50;;;5.90;;
577;SDS011;275;48.492;9.214;2023-05-13T14:27:17;7.13;;;6.17;;
577;SDS011;275;48.492;9.214;2023-05-13T14:29:44;8.60;;;6.07;;
577;SDS011;275;48.492;9.214;2023-05-13T14:32:12;6.00;;;5.50;;
577;SDS011;275;48.492;9.214;2023-05-13T14:34:39;6.30;;;5.80;;
577;SDS011;275;48.492;9.214;2023-05-13T14:37:07;6.37;;;5.77;;
577;SDS011;275;48.492;9.214;2023-05-13T14:39:35;6.77;;;6.17;;
577;SDS011;275;48.492;9.214;2023-05-13T14:42:02;5.67;;;5.00;;
577;SDS011;275;48.492;9.214;2023-05-13T14:44:29;7.20;;;6.60;;
577;SDS011;275;48.492;9.214;2023-05-13T14:46:57;8.13;;;6.80;;
577;SDS011;275;48.492;9.214;2023-05-13T14:49:24;8.10;;;7.37;;
577;SDS011;275;48.492;9.214;2023-05-13T14:51:50;6.70;;;6.10;;
577;SDS011;275;48.492;9.214;2023-05-13T14:54:17;6.60;;;5.97;;
577;SDS011;275;48.492;9.214;2023-05-13T14:56:45;6.83;;;6.23;;
577;SDS011;275;48.492;9.214;2023-05-13T14:59:12;7.10;;;6.50;;
577;SDS011;275;48.492;9.214;2023-05-13T15:01:39;6.87;;;6.27;;
577;SDS011;275;48.492;9.214;2023-05-13T15:04:06;7.60;;;6.90;;
577;SDS011;275;48.492;9.214;2023-05-13T15:06:33;8.47;;;7.63;;
577;SDS011;275;48.492;9.214;2023-05-13T15:09:01;7.90;;;7.10;;
577;SDS011;275;48.492;9.214;2023-05-13T15:11:29;7.10;;;6.50;;
577;SDS011;275;48.492;9.214;2023-05-13T15:14:00;7.30;;;6.53;;
577;SDS011;275;48.492;9.214;2023-05-13T15:16:27;7.27;;;6.57;;
577;SDS011;275;48.492;9.214;2023-05-13T15:18:54;7.53;;;6.83;;
577;SDS011;275;48.492;9.214;2023-05-13T15:21:21;7.43;;;6.73;;
577;SDS011;275;48.492;9.214;2023-05-13T15:23:48;6.70;;;6.07;;
577;SDS011;275;48.492;9.214;2023-05-13T15:26:15;6.77;;;6.17;;
577;SDS011;275;48.492;9.214;2023-05-13T15:28:41;6.67;;;6.07;;
577;SDS011;275;48.492;9.214;2023-05-13T15:31:10;6.40;;;5.80;;
577;SDS011;275;48.492;9.214;2023-05-13T15:33:36;6.90;;;6.20;;
577;SDS011;275;48.492;9.214;2023-05-13T15:36:04;6.93;;;6.37;;
577;SDS011;275;48.492;9.214;2023-05-13T15:38:33;6.50;;;6.00;;
577;SDS011;275;48.492;9.214;2023-05-13T15:41:01;6.93;;;6.20;;
577;SDS011;275;48.492;9.214;2023-05-13T15:43:28;7.07;;;5.63;;
577;SDS011;275;48.492;9.214;2023-05-13T15:45:55;7.63;;;6.43;;
577;SDS011;275;48.492;9.214;2023-05-13T15:48:24;6.17;;;5.67;;
577;SDS011;275;48.492;9.214;2023-05-13T15:50:51;7.70;;;6.03;;
577;SDS011;275;48.492;9.214;2023-05-13T15:53:18;6.73;;;6.13;;